createdAt,value
2023-03-23T16:02:05.129Z,100131.50
2023-03-23T16:07:13.919Z,100145.28
2023-03-23T16:12:18.116Z,100145.50
2023-03-23T16:17:22.936Z,100141.16
2023-03-23T16:22:28.073Z,100141.16
2023-03-23T16:27:31.951Z,100142.88
2023-03-23T16:37:40.450Z,100138.31
2023-03-23T16:42:44.429Z,100135.19
2023-03-23T16:47:48.890Z,100149.88
2023-03-23T16:52:54.025Z,100122.03
2023-03-23T16:58:13.013Z,100117.59
2023-03-23T17:03:20.811Z,100120.19
2023-03-23T17:08:25.888Z,100121.00
2023-03-23T17:13:29.618Z,100122.59
2023-03-23T17:18:33.447Z,100110.31
2023-03-23T17:23:38.554Z,100119.56
2023-03-23T17:28:42.257Z,100110.16
2023-03-23T17:33:46.029Z,100112.44
2023-03-23T17:38:51.452Z,100102.78
2023-03-23T17:43:55.311Z,100101.75
2023-03-23T17:48:59.211Z,100102.41
2023-03-23T17:54:04.270Z,100102.44
2023-03-23T17:59:08.270Z,100102.38
2023-03-23T18:04:12.040Z,100084.66
2023-03-23T18:09:17.143Z,100077.94
2023-03-23T18:14:21.922Z,100076.94
2023-03-23T18:19:25.940Z,100069.03
2023-03-23T18:24:30.990Z,100074.87
2023-03-23T18:29:34.970Z,100061.00
2023-03-23T18:34:41.673Z,100064.50
2023-03-23T18:39:46.882Z,100059.78
2023-03-23T18:44:50.609Z,100051.38
2023-03-23T18:49:55.998Z,100047.81
2023-03-23T18:55:01.536Z,100039.22
2023-03-23T19:00:06.054Z,100033.75
2023-03-23T19:05:11.096Z,100027.81
2023-03-23T19:10:17.219Z,100029.53
2023-03-23T19:15:21.427Z,100033.50
2023-03-23T19:20:57.341Z,100023.22
2023-03-23T19:25:53.393Z,100029.97
2023-03-23T19:30:59.022Z,100010.81
2023-03-23T19:36:09.996Z,100016.81
2023-03-23T19:41:19.093Z,100007.16
2023-03-23T19:46:23.704Z,100013.78
2023-03-23T19:51:28.611Z,100009.16
2023-03-23T19:56:35.051Z,100008.94
2023-03-23T20:01:39.316Z,100001.81
2023-03-23T20:06:43.558Z,99995.88
2023-03-23T20:11:50.226Z,99984.44
2023-03-23T20:16:54.133Z,99988.44
2023-03-23T20:21:57.980Z,99985.87
2023-03-23T20:27:04.045Z,99977.13
2023-03-23T20:32:08.481Z,99969.91
2023-03-23T20:37:16.144Z,99958.47
2023-03-23T20:42:21.519Z,99957.59
2023-03-23T20:47:25.303Z,99954.19
2023-03-23T20:52:29.180Z,99938.38
2023-03-23T20:57:34.547Z,99928.88
2023-03-23T21:02:39.371Z,99927.19
2023-03-23T21:07:43.741Z,99925.25
2023-03-23T21:12:48.873Z,99915.56
2023-03-23T21:17:52.933Z,99919.13
2023-03-23T21:22:56.957Z,99935.50
2023-03-23T21:28:02.891Z,99922.25
2023-03-23T21:33:08.340Z,99924.06
2023-03-23T21:38:14.290Z,99922.34
2023-03-23T21:43:19.724Z,99904.78
2023-03-23T21:48:24.085Z,99897.62
2023-03-23T21:53:30.933Z,99895.13
2023-03-23T21:58:36.312Z,99887.25
2023-03-23T22:03:41.052Z,99889.41
2023-03-23T22:08:47.106Z,99899.56
2023-03-23T22:13:53.784Z,99870.84
2023-03-23T22:19:00.363Z,99868.84
2023-03-23T22:24:04.924Z,99860.75
2023-03-23T22:29:11.273Z,99860.81
2023-03-23T22:34:15.728Z,99847.81
2023-03-23T22:39:19.587Z,99839.84
2023-03-23T22:44:24.772Z,99827.72
2023-03-23T22:49:28.584Z,99824.22
2023-03-23T22:54:32.654Z,99817.41
2023-03-23T22:59:37.843Z,99805.22
2023-03-23T23:04:42.834Z,99813.81
2023-03-23T23:09:47.279Z,99799.94
2023-03-23T23:14:52.447Z,99788.75
2023-03-23T23:19:57.479Z,99784.50
2023-03-23T23:25:02.134Z,99780.28
2023-03-23T23:30:08.775Z,99766.47
2023-03-23T23:35:14.248Z,99756.78
2023-03-23T23:40:19.408Z,99753.56
2023-03-23T23:45:24.577Z,99742.41
2023-03-23T23:50:28.381Z,99728.53
2023-03-23T23:55:32.426Z,99740.56
